createdAt,value
2018-02-21T00:00:38.828Z,0
2018-02-21T00:01:48.570Z,0
2018-02-21T00:02:58.621Z,0
2018-02-21T00:04:07.818Z,0
2018-02-21T00:05:17.828Z,0
2018-02-21T00:06:27.826Z,0
2018-02-21T00:07:37.560Z,0
2018-02-21T00:08:47.041Z,0
2018-02-21T00:09:56.264Z,0
2018-02-21T00:11:06.287Z,0
2018-02-21T00:12:15.753Z,0
2018-02-21T00:13:25.762Z,0
2018-02-21T00:14:35.788Z,0
2018-02-21T00:15:45.825Z,0
2018-02-21T00:16:55.821Z,0
2018-02-21T00:18:05.336Z,0
2018-02-21T00:19:14.549Z,0
2018-02-21T00:20:24.278Z,0
2018-02-21T00:21:33.761Z,0
2018-02-21T00:22:44.045Z,0
2018-02-21T00:23:54.046Z,0
2018-02-21T00:25:03.769Z,0
2018-02-21T00:26:13.265Z,0
2018-02-21T00:27:23.015Z,0
2018-02-21T00:28:32.777Z,0
2018-02-21T00:29:42.773Z,0
2018-02-21T00:30:52.518Z,0
2018-02-21T00:32:02.254Z,0
2018-02-21T00:33:11.728Z,0
2018-02-21T00:34:21.488Z,0
2018-02-21T00:35:31.494Z,0
2018-02-21T00:36:41.514Z,0
2018-02-21T00:37:51.255Z,0
2018-02-21T00:39:01.001Z,0
2018-02-21T00:40:11.131Z,0
2018-02-21T00:41:21.142Z,0
2018-02-21T00:42:30.637Z,0
2018-02-21T00:43:40.675Z,0
2018-02-21T00:44:50.150Z,0
2018-02-21T00:46:00.158Z,0
2018-02-21T00:47:09.694Z,0
2018-02-21T00:48:19.712Z,0
2018-02-21T00:49:28.948Z,0
2018-02-21T00:50:38.694Z,0
2018-02-21T00:51:48.466Z,0
2018-02-21T00:52:57.943Z,0
2018-02-21T00:54:07.742Z,0
2018-02-21T00:55:17.494Z,0
2018-02-21T00:56:27.242Z,0
2018-02-21T00:57:36.712Z,0
2018-02-21T00:58:46.713Z,0
2018-02-21T00:59:56.727Z,0
2018-02-21T01:01:06.827Z,0
2018-02-21T01:02:16.835Z,0
2018-02-21T01:03:26.316Z,0
2018-02-21T01:04:36.361Z,0
2018-02-21T01:05:46.108Z,0
2018-02-21T01:06:55.864Z,0
2018-02-21T01:08:05.359Z,0
2018-02-21T01:09:14.828Z,0
2018-02-21T01:10:24.045Z,0
2018-02-21T01:11:33.791Z,0
2018-02-21T01:12:43.000Z,0
2018-02-21T01:13:52.483Z,0
2018-02-21T01:15:01.969Z,0
2018-02-21T01:16:11.992Z,0
2018-02-21T01:17:21.221Z,0
2018-02-21T01:18:30.763Z,0
2018-02-21T01:19:40.505Z,0
2018-02-21T01:20:49.980Z,0
2018-02-21T01:21:59.984Z,0
2018-02-21T01:23:09.822Z,0
2018-02-21T01:24:19.560Z,0
2018-02-21T01:25:29.340Z,0
2018-02-21T01:26:38.830Z,0
2018-02-21T01:27:48.842Z,0
2018-02-21T01:28:58.865Z,0
2018-02-21T01:30:08.361Z,0
2018-02-21T01:31:17.563Z,0
2018-02-21T01:32:27.369Z,0
2018-02-21T01:33:37.249Z,0
2018-02-21T01:34:46.732Z,0
2018-02-21T01:35:56.752Z,0
2018-02-21T01:37:06.504Z,0
2018-02-21T01:38:15.989Z,0
2018-02-21T01:39:25.756Z,0
2018-02-21T01:40:35.490Z,0
2018-02-21T01:41:45.368Z,0
2018-02-21T01:42:55.106Z,0
2018-02-21T01:44:04.838Z,0
2018-02-21T01:45:14.361Z,0
2018-02-21T01:46:23.840Z,0
2018-02-21T01:47:32.778Z,0
2018-02-21T01:48:41.989Z,0
2018-02-21T01:49:51.758Z,0
2018-02-21T01:51:01.828Z,0
2018-02-21T01:52:11.575Z,0
2018-02-21T01:53:21.579Z,0
2018-02-21T01:54:31.348Z,0
2018-02-21T01:55:41.158Z,0
2018-02-21T01:56:50.905Z,0
2018-02-21T01:58:00.392Z,0
2018-02-21T01:59:09.878Z,0
2018-02-21T02:00:19.895Z,0
2018-02-21T02:01:29.894Z,0
2018-02-21T02:02:39.360Z,0
2018-02-21T02:03:49.363Z,0
2018-02-21T02:04:59.368Z,0
2018-02-21T02:06:09.123Z,0
2018-02-21T02:07:18.875Z,0
2018-02-21T02:08:28.633Z,0
2018-02-21T02:09:38.108Z,0
2018-02-21T02:10:47.853Z,0
2018-02-21T02:11:57.057Z,0
2018-02-21T02:13:06.844Z,0
2018-02-21T02:14:16.319Z,0
2018-02-21T02:15:25.794Z,0
2018-02-21T02:16:35.568Z,0
2018-02-21T02:17:45.061Z,0
2018-02-21T02:18:55.059Z,0
2018-02-21T02:20:04.818Z,0
2018-02-21T02:21:14.820Z,0
2018-02-21T02:22:24.826Z,0
2018-02-21T02:23:34.298Z,0
2018-02-21T02:24:43.818Z,0
2018-02-21T02:25:53.289Z,0
2018-02-21T02:27:02.504Z,0
2018-02-21T02:28:12.249Z,0
2018-02-21T02:29:22.242Z,0
2018-02-21T02:30:32.046Z,0
2018-02-21T02:31:41.795Z,0
2018-02-21T02:32:51.527Z,0
2018-02-21T02:34:01.251Z,0
2018-02-21T02:35:11.324Z,0
2018-02-21T02:36:21.090Z,0
2018-02-21T02:37:30.817Z,0
2018-02-21T02:38:40.559Z,0
2018-02-21T02:39:50.564Z,0
2018-02-21T02:41:00.032Z,0
2018-02-21T02:42:09.491Z,0
2018-02-21T02:43:18.969Z,0
2018-02-21T02:44:28.774Z,0
2018-02-21T02:45:38.817Z,0
2018-02-21T02:46:48.554Z,0
2018-02-21T02:47:58.295Z,0
2018-02-21T02:49:07.756Z,0
2018-02-21T02:50:17.750Z,0
2018-02-21T02:51:27.222Z,0
2018-02-21T02:52:37.222Z,0
2018-02-21T02:53:46.710Z,0
2018-02-21T02:54:56.703Z,0
2018-02-21T02:56:06.471Z,0
2018-02-21T02:57:16.493Z,0
2018-02-21T02:58:26.228Z,0
2018-02-21T02:59:35.952Z,0
2018-02-21T03:00:45.663Z,0
2018-02-21T03:01:55.385Z,0
2018-02-21T03:03:05.106Z,0
2018-02-21T03:04:14.294Z,0
2018-02-21T03:05:23.757Z,0
2018-02-21T03:06:33.504Z,0
2018-02-21T03:07:43.242Z,0
2018-02-21T03:08:53.227Z,0
2018-02-21T03:10:02.944Z,0
2018-02-21T03:11:12.666Z,0
2018-02-21T03:12:22.658Z,0
2018-02-21T03:13:32.373Z,0
2018-02-21T03:14:41.565Z,0
2018-02-21T03:15:51.021Z,0
2018-02-21T03:17:00.754Z,0
2018-02-21T03:18:10.526Z,0
2018-02-21T03:19:20.511Z,0
2018-02-21T03:20:30.232Z,0
2018-02-21T03:21:39.951Z,0
2018-02-21T03:22:49.976Z,0
2018-02-21T03:23:59.961Z,0
2018-02-21T03:25:09.680Z,0
2018-02-21T03:26:18.861Z,0
2018-02-21T03:27:28.582Z,0
2018-02-21T03:28:38.576Z,0
2018-02-21T03:29:48.081Z,0
2018-02-21T03:30:57.816Z,0
2018-02-21T03:32:07.275Z,0
2018-02-21T03:33:17.262Z,0
2018-02-21T03:34:26.712Z,0
2018-02-21T03:35:36.436Z,0
2018-02-21T03:36:45.624Z,0
2018-02-21T03:37:55.373Z,0
2018-02-21T03:39:04.775Z,0
2018-02-21T03:40:14.279Z,0
2018-02-21T03:41:24.017Z,0
2018-02-21T03:42:34.001Z,0
2018-02-21T03:43:42.922Z,0
2018-02-21T03:44:52.918Z,0
2018-02-21T03:46:02.104Z,0
2018-02-21T03:47:12.088Z,0
2018-02-21T03:48:21.806Z,0
2018-02-21T03:49:31.789Z,0
2018-02-21T03:50:41.527Z,0
2018-02-21T03:51:50.999Z,0
2018-02-21T03:53:00.718Z,0
2018-02-21T03:54:10.211Z,0
2018-02-21T03:55:19.886Z,0
2018-02-21T03:56:29.606Z,0
2018-02-21T03:57:39.329Z,0
2018-02-21T03:58:48.784Z,0
2018-02-21T03:59:58.532Z,0
2018-02-21T04:01:08.304Z,0
2018-02-21T04:02:18.021Z,0
2018-02-21T04:03:28.001Z,0
2018-02-21T04:04:37.720Z,0
2018-02-21T04:05:47.438Z,0
2018-02-21T04:06:56.628Z,0
2018-02-21T04:08:06.078Z,0
2018-02-21T04:09:16.068Z,0
2018-02-21T04:10:26.094Z,0
2018-02-21T04:11:35.828Z,0
2018-02-21T04:12:45.521Z,0
2018-02-21T04:13:55.241Z,0
2018-02-21T04:15:04.711Z,0
2018-02-21T04:16:14.701Z,0
2018-02-21T04:17:24.423Z,0
2018-02-21T04:18:33.618Z,0
2018-02-21T04:19:43.344Z,0
2018-02-21T04:20:53.075Z,0
2018-02-21T04:22:03.093Z,0
2018-02-21T04:23:12.817Z,0
2018-02-21T04:24:22.007Z,0
2018-02-21T04:25:32.019Z,0
2018-02-21T04:26:41.740Z,0
2018-02-21T04:27:50.930Z,0
2018-02-21T04:29:00.379Z,0
2018-02-21T04:30:10.034Z,0
2018-02-21T04:31:19.755Z,0
2018-02-21T04:32:28.947Z,0
2018-02-21T04:33:38.674Z,0
2018-02-21T04:34:47.863Z,0
2018-02-21T04:35:57.835Z,0
2018-02-21T04:37:07.297Z,0
2018-02-21T04:38:17.012Z,0
2018-02-21T04:39:26.462Z,0
2018-02-21T04:40:36.183Z,0
2018-02-21T04:41:45.639Z,0
2018-02-21T04:42:55.426Z,0
2018-02-21T04:44:04.677Z,0
2018-02-21T04:45:14.665Z,0
2018-02-21T04:46:24.383Z,0
2018-02-21T04:47:33.834Z,0
2018-02-21T04:48:43.290Z,0
2018-02-21T04:49:53.011Z,0
2018-02-21T04:51:02.727Z,0
2018-02-21T04:52:12.446Z,0
2018-02-21T04:53:21.902Z,0
2018-02-21T04:54:31.358Z,0
2018-02-21T04:55:41.086Z,0
2018-02-21T04:56:51.071Z,0
2018-02-21T04:58:00.534Z,0
2018-02-21T04:59:10.260Z,0
2018-02-21T05:00:20.248Z,0
2018-02-21T05:01:30.238Z,0
2018-02-21T05:02:39.688Z,0
2018-02-21T05:03:49.408Z,0
2018-02-21T05:04:59.128Z,0
2018-02-21T05:06:08.313Z,0
2018-02-21T05:07:18.304Z,0
2018-02-21T05:08:28.335Z,0
2018-02-21T05:09:38.317Z,0
2018-02-21T05:10:48.301Z,0
2018-02-21T05:11:57.757Z,0
2018-02-21T05:13:07.478Z,0
2018-02-21T05:14:16.669Z,0
2018-02-21T05:15:26.384Z,0
2018-02-21T05:16:36.167Z,0
2018-02-21T05:17:45.629Z,0
2018-02-21T05:18:55.612Z,0
2018-02-21T05:20:05.062Z,0
2018-02-21T05:21:15.251Z,0
2018-02-21T05:22:24.978Z,0
2018-02-21T05:23:34.696Z,0
2018-02-21T05:24:43.886Z,0
2018-02-21T05:25:53.869Z,0
2018-02-21T05:27:03.596Z,0
2018-02-21T05:28:13.049Z,0
2018-02-21T05:29:22.769Z,0
2018-02-21T05:30:31.955Z,0
2018-02-21T05:31:41.406Z,0
2018-02-21T05:32:51.392Z,0
2018-02-21T05:34:00.849Z,0
2018-02-21T05:35:10.569Z,0
2018-02-21T05:36:20.287Z,0
2018-02-21T05:37:30.007Z,0
2018-02-21T05:38:38.861Z,0
2018-02-21T05:39:48.580Z,0
2018-02-21T05:40:58.295Z,0
2018-02-21T05:42:07.483Z,0
2018-02-21T05:43:17.474Z,0
2018-02-21T05:44:26.921Z,0
2018-02-21T05:45:36.641Z,0
2018-02-21T05:46:46.357Z,0
2018-02-21T05:47:56.356Z,0
2018-02-21T05:49:05.806Z,0
2018-02-21T05:50:15.528Z,0
2018-02-21T05:51:25.516Z,0
2018-02-21T05:52:35.240Z,0
2018-02-21T05:53:44.955Z,0
2018-02-21T05:54:54.943Z,0
2018-02-21T05:56:04.669Z,0
2018-02-21T05:57:14.173Z,0
2018-02-21T05:58:24.177Z,0
2018-02-21T05:59:33.900Z,4
2018-02-21T06:00:43.692Z,4
2018-02-21T06:01:53.208Z,4
2018-02-21T06:03:03.271Z,4
2018-02-21T06:04:13.260Z,4
2018-02-21T06:05:23.032Z,0
2018-02-21T06:06:32.493Z,0
2018-02-21T06:07:42.504Z,4
2018-02-21T06:08:52.231Z,4
2018-02-21T06:10:01.961Z,4
2018-02-21T06:11:11.149Z,4
2018-02-21T06:12:21.145Z,8
2018-02-21T06:13:30.862Z,8
2018-02-21T06:14:40.319Z,8
2018-02-21T06:15:50.296Z,8
2018-02-21T06:16:59.494Z,8
2018-02-21T06:18:09.229Z,12
2018-02-21T06:19:18.424Z,16
2018-02-21T06:20:28.416Z,16
2018-02-21T06:21:38.403Z,20
2018-02-21T06:22:47.856Z,24
2018-02-21T06:23:57.044Z,24
2018-02-21T06:25:06.862Z,32
2018-02-21T06:26:16.852Z,36
2018-02-21T06:27:26.312Z,40
2018-02-21T06:28:35.793Z,44
2018-02-21T06:29:46.004Z,52
2018-02-21T06:30:55.459Z,60
2018-02-21T06:32:04.903Z,68
2018-02-21T06:33:14.918Z,72
2018-02-21T06:34:24.644Z,80
2018-02-21T06:35:34.107Z,88
2018-02-21T06:36:43.303Z,100
2018-02-21T06:37:53.290Z,108
2018-02-21T06:39:03.012Z,120
2018-02-21T06:40:12.733Z,128
2018-02-21T06:41:22.219Z,140
2018-02-21T06:42:32.246Z,152
2018-02-21T06:43:41.454Z,160
2018-02-21T06:44:50.902Z,172
2018-02-21T06:46:00.910Z,184
2018-02-21T06:47:10.093Z,192
2018-02-21T06:48:19.873Z,208
2018-02-21T06:49:29.600Z,220
2018-02-21T06:50:39.113Z,236
2018-02-21T06:51:48.830Z,256
2018-02-21T06:52:58.012Z,276
2018-02-21T06:54:07.463Z,292
2018-02-21T06:55:16.913Z,308
2018-02-21T06:56:26.100Z,332
2018-02-21T06:57:36.087Z,352
2018-02-21T06:58:45.539Z,376
2018-02-21T06:59:55.261Z,396
2018-02-21T07:01:05.380Z,420
2018-02-21T07:02:15.641Z,444
2018-02-21T07:03:25.501Z,472
2018-02-21T07:04:34.957Z,496
2018-02-21T07:05:44.406Z,516
2018-02-21T07:06:54.130Z,536
2018-02-21T07:08:03.853Z,556
2018-02-21T07:09:13.579Z,576
2018-02-21T07:10:23.311Z,596
2018-02-21T07:11:32.765Z,616
2018-02-21T07:12:42.217Z,640
2018-02-21T07:13:51.673Z,660
2018-02-21T07:15:01.125Z,680
2018-02-21T07:16:10.579Z,700
2018-02-21T07:17:20.580Z,712
2018-02-21T07:18:30.307Z,728
2018-02-21T07:19:40.438Z,748
2018-02-21T07:20:50.026Z,772
2018-02-21T07:21:59.480Z,804
2018-02-21T07:23:08.931Z,832
2018-02-21T07:24:18.117Z,852
2018-02-21T07:25:27.848Z,872
2018-02-21T07:26:37.830Z,892
2018-02-21T07:27:47.017Z,912
2018-02-21T07:28:57.018Z,932
2018-02-21T07:30:06.747Z,960
2018-02-21T07:31:15.934Z,972
2018-02-21T07:32:25.666Z,1000
2018-02-21T07:33:35.383Z,1020
2018-02-21T07:34:45.380Z,1044
2018-02-21T07:35:54.387Z,1068
2018-02-21T07:37:04.136Z,1092
2018-02-21T07:38:13.995Z,1120
2018-02-21T07:39:23.191Z,1144
2018-02-21T07:40:32.640Z,1160
2018-02-21T07:41:42.631Z,1172
2018-02-21T07:42:51.593Z,1184
2018-02-21T07:44:01.594Z,1192
2018-02-21T07:45:11.351Z,1200
2018-02-21T07:46:21.124Z,1212
2018-02-21T07:47:31.146Z,1224
2018-02-21T07:48:41.070Z,1236
2018-02-21T07:49:50.821Z,1252
2018-02-21T07:51:00.539Z,1268
2018-02-21T07:52:09.760Z,1288
2018-02-21T07:53:19.751Z,1304
2018-02-21T07:54:29.012Z,1320
2018-02-21T07:55:38.731Z,1332
2018-02-21T07:56:48.466Z,1348
2018-02-21T07:57:58.192Z,1368
2018-02-21T07:59:07.393Z,1388
2018-02-21T08:00:17.393Z,1416
2018-02-21T08:01:26.585Z,1424
2018-02-21T08:02:36.046Z,1464
2018-02-21T08:03:45.766Z,1488
2018-02-21T08:04:55.484Z,1504
2018-02-21T08:06:04.935Z,1516
2018-02-21T08:07:14.433Z,1528
2018-02-21T08:08:23.361Z,1536
2018-02-21T08:09:33.347Z,1544
2018-02-21T08:10:42.538Z,1564
2018-02-21T08:11:52.519Z,1580
2018-02-21T08:13:02.519Z,1596
2018-02-21T08:14:11.996Z,1620
2018-02-21T08:15:21.825Z,1636
2018-02-21T08:16:31.852Z,1648
2018-02-21T08:17:41.311Z,1668
2018-02-21T08:18:50.769Z,1668
2018-02-21T08:19:59.956Z,1672
2018-02-21T08:21:09.411Z,1672
2018-02-21T08:22:19.126Z,1668
2018-02-21T08:23:29.114Z,1660
2018-02-21T08:24:38.848Z,1660
2018-02-21T08:25:48.300Z,1664
2018-02-21T08:26:58.281Z,1676
2018-02-21T08:28:08.043Z,1680
2018-02-21T08:29:17.770Z,1688
2018-02-21T08:30:27.575Z,1696
2018-02-21T08:31:37.023Z,1704
2018-02-21T08:32:47.001Z,1708
2018-02-21T08:33:56.476Z,1720
2018-02-21T08:35:05.927Z,1736
2018-02-21T08:36:15.650Z,1752
2018-02-21T08:37:25.647Z,1768
2018-02-21T08:38:35.687Z,1780
2018-02-21T08:39:45.416Z,1796
2018-02-21T08:40:54.867Z,1804
2018-02-21T08:42:04.056Z,1820
2018-02-21T08:43:13.242Z,1840
2018-02-21T08:44:23.252Z,1848
2018-02-21T08:45:32.980Z,1840
2018-02-21T08:46:42.432Z,1840
2018-02-21T08:47:52.157Z,1832
2018-02-21T08:49:01.894Z,1800
2018-02-21T08:50:11.989Z,1776
2018-02-21T08:51:21.703Z,1776
2018-02-21T08:52:31.152Z,1756
2018-02-21T08:53:40.886Z,1764
2018-02-21T08:54:50.620Z,1800
2018-02-21T08:56:00.337Z,1812
2018-02-21T08:57:09.787Z,1824
2018-02-21T08:58:19.832Z,1816
2018-02-21T08:59:29.508Z,1840
2018-02-21T09:00:39.225Z,1852
2018-02-21T09:01:48.984Z,1896
2018-02-21T09:02:58.761Z,1944
2018-02-21T09:04:08.506Z,1928
2018-02-21T09:05:18.228Z,1928
2018-02-21T09:06:27.749Z,1932
2018-02-21T09:07:37.524Z,1900
2018-02-21T09:08:46.789Z,1972
2018-02-21T09:09:56.561Z,1940
2018-02-21T09:11:06.314Z,1856
2018-02-21T09:12:15.498Z,1864
2018-02-21T09:13:25.263Z,1828
2018-02-21T09:14:34.721Z,1888
2018-02-21T09:15:44.733Z,1984
2018-02-21T09:16:54.209Z,2004
2018-02-21T09:18:03.397Z,1912
2018-02-21T09:19:12.585Z,1972
2018-02-21T09:20:22.376Z,1972
2018-02-21T09:21:31.586Z,1972
2018-02-21T09:22:41.100Z,2052
2018-02-21T09:23:50.557Z,2104
2018-02-21T09:25:00.620Z,2116
2018-02-21T09:26:10.340Z,2116
2018-02-21T09:27:19.283Z,2124
2018-02-21T09:28:29.275Z,2064
2018-02-21T09:29:39.002Z,2176
2018-02-21T09:30:48.455Z,2188
2018-02-21T09:31:58.437Z,2196
2018-02-21T09:33:07.913Z,2196
2018-02-21T09:34:17.375Z,2192
2018-02-21T09:35:26.837Z,2208
2018-02-21T09:36:36.047Z,2216
2018-02-21T09:37:45.499Z,2236
2018-02-21T09:38:55.200Z,2240
2018-02-21T09:40:04.205Z,2264
2018-02-21T09:41:13.126Z,2280
2018-02-21T09:42:22.864Z,2292
2018-02-21T09:43:32.878Z,2284
2018-02-21T09:44:42.867Z,2288
2018-02-21T09:45:52.633Z,2300
2018-02-21T09:47:02.166Z,2288
2018-02-21T09:48:11.902Z,2272
2018-02-21T09:49:21.645Z,2256
2018-02-21T09:50:31.634Z,2212
2018-02-21T09:51:41.099Z,2240
2018-02-21T09:52:50.878Z,2232
2018-02-21T09:54:00.873Z,2284
2018-02-21T09:55:10.723Z,2312
2018-02-21T09:56:19.920Z,2288
2018-02-21T09:57:29.669Z,2376
2018-02-21T09:58:39.448Z,2392
2018-02-21T09:59:49.219Z,2424
2018-02-21T10:00:59.074Z,2440
2018-02-21T10:02:09.184Z,2444
2018-02-21T10:03:19.178Z,2428
2018-02-21T10:04:28.942Z,2456
2018-02-21T10:05:38.152Z,2464
2018-02-21T10:06:47.338Z,2484
2018-02-21T10:07:57.342Z,2476
2018-02-21T10:09:07.330Z,2460
2018-02-21T10:10:16.784Z,2488
2018-02-21T10:11:26.532Z,2504
2018-02-21T10:12:36.056Z,2520
2018-02-21T10:13:45.791Z,2540
2018-02-21T10:14:55.775Z,2540
2018-02-21T10:16:04.967Z,2516
2018-02-21T10:17:14.684Z,2548
2018-02-21T10:18:24.670Z,2580
2018-02-21T10:19:33.857Z,2564
2018-02-21T10:20:43.612Z,2596
2018-02-21T10:21:53.615Z,2596
2018-02-21T10:23:03.420Z,2624
2018-02-21T10:24:13.407Z,2624
2018-02-21T10:25:23.124Z,2628
2018-02-21T10:26:32.579Z,2640
2018-02-21T10:27:42.299Z,2648
2018-02-21T10:28:51.803Z,2616
2018-02-21T10:30:00.991Z,2644
2018-02-21T10:31:10.453Z,2692
2018-02-21T10:32:19.930Z,2712
2018-02-21T10:33:29.930Z,2668
2018-02-21T10:34:39.651Z,2620
2018-02-21T10:35:49.375Z,2724
2018-02-21T10:36:59.126Z,2740
2018-02-21T10:38:08.856Z,2732
2018-02-21T10:39:18.775Z,2768
2018-02-21T10:40:28.503Z,2736
2018-02-21T10:41:38.100Z,2728
2018-02-21T10:42:47.291Z,2720
2018-02-21T10:43:57.019Z,2796
2018-02-21T10:45:06.520Z,2820
2018-02-21T10:46:16.250Z,2756
2018-02-21T10:47:25.473Z,2876
2018-02-21T10:48:35.202Z,2852
2018-02-21T10:49:45.215Z,2896
2018-02-21T10:50:55.214Z,2864
2018-02-21T10:52:05.241Z,2900
2018-02-21T10:53:14.453Z,2916
2018-02-21T10:54:24.201Z,2940
2018-02-21T10:55:33.678Z,2964
2018-02-21T10:56:43.702Z,2968
2018-02-21T10:57:53.476Z,3032
2018-02-21T10:59:02.671Z,2984
2018-02-21T11:00:12.407Z,2996
2018-02-21T11:01:21.937Z,3012
2018-02-21T11:02:31.268Z,3048
2018-02-21T11:03:41.281Z,3016
2018-02-21T11:04:50.741Z,3076
2018-02-21T11:06:00.198Z,3128
2018-02-21T11:07:10.001Z,3108
2018-02-21T11:08:20.027Z,3116
2018-02-21T11:09:29.763Z,3128
2018-02-21T11:10:39.506Z,3120
2018-02-21T11:11:48.995Z,3124
2018-02-21T11:12:58.729Z,3120
2018-02-21T11:14:08.469Z,3100
2018-02-21T11:15:17.932Z,3164
2018-02-21T11:16:27.426Z,3180
2018-02-21T11:17:37.172Z,3220
2018-02-21T11:18:47.167Z,3240
2018-02-21T11:19:56.903Z,3228
2018-02-21T11:21:06.095Z,3220
2018-02-21T11:22:15.860Z,3224
2018-02-21T11:23:26.045Z,3264
2018-02-21T11:24:36.148Z,3260
2018-02-21T11:25:45.597Z,3168
2018-02-21T11:26:55.098Z,3296
2018-02-21T11:28:04.564Z,3148
2018-02-21T11:29:14.034Z,3156
2018-02-21T11:30:23.763Z,3392
2018-02-21T11:31:33.496Z,3200
2018-02-21T11:32:43.487Z,3184
2018-02-21T11:33:53.210Z,3156
2018-02-21T11:35:02.668Z,3304
2018-02-21T11:36:12.396Z,3280
2018-02-21T11:37:21.325Z,3320
2018-02-21T11:38:31.052Z,3308
2018-02-21T11:39:40.778Z,3240
2018-02-21T11:40:50.511Z,3260
2018-02-21T11:42:00.243Z,3220
2018-02-21T11:43:09.447Z,3332
2018-02-21T11:44:19.442Z,3344
2018-02-21T11:45:29.434Z,3352
2018-02-21T11:46:38.726Z,3340
2018-02-21T11:47:48.187Z,3368
2018-02-21T11:48:57.702Z,3316
2018-02-21T11:50:06.946Z,3332
2018-02-21T11:51:16.942Z,3356
2018-02-21T11:52:26.418Z,3356
2018-02-21T11:53:35.880Z,3368
2018-02-21T11:54:45.640Z,3368
2018-02-21T11:55:55.359Z,3380
2018-02-21T11:57:05.087Z,3352
2018-02-21T11:58:14.281Z,3356
2018-02-21T11:59:24.016Z,3376
2018-02-21T12:00:33.206Z,3420
2018-02-21T12:01:42.932Z,3392
2018-02-21T12:02:52.392Z,3388
2018-02-21T12:04:02.226Z,3400
2018-02-21T12:05:11.955Z,3392
2018-02-21T12:06:21.696Z,3464
2018-02-21T12:07:31.418Z,3496
2018-02-21T12:08:41.421Z,3512
2018-02-21T12:09:51.173Z,3520
2018-02-21T12:11:01.165Z,3500
2018-02-21T12:12:10.621Z,3500
2018-02-21T12:13:19.546Z,3540
2018-02-21T12:14:29.151Z,3488
2018-02-21T12:15:38.474Z,3464
2018-02-21T12:16:47.976Z,3492
2018-02-21T12:17:57.725Z,3456
2018-02-21T12:19:07.457Z,3448
2018-02-21T12:20:16.920Z,3452
2018-02-21T12:21:26.924Z,3412
2018-02-21T12:22:36.493Z,3416
2018-02-21T12:23:46.240Z,3548
2018-02-21T12:24:55.978Z,3536
2018-02-21T12:26:06.020Z,3528
2018-02-21T12:27:15.249Z,3588
2018-02-21T12:28:25.022Z,3624
2018-02-21T12:29:34.915Z,3580
2018-02-21T12:30:44.914Z,3628
2018-02-21T12:31:54.671Z,3676
2018-02-21T12:33:04.133Z,3692
2018-02-21T12:34:13.378Z,3672
2018-02-21T12:35:23.562Z,3676
2018-02-21T12:36:33.312Z,3688
2018-02-21T12:37:43.045Z,3708
2018-02-21T12:38:53.060Z,3744
2018-02-21T12:40:02.793Z,3784
2018-02-21T12:41:12.811Z,3752
2018-02-21T12:42:22.005Z,3748
2018-02-21T12:43:31.474Z,3724
2018-02-21T12:44:41.504Z,3752
2018-02-21T12:45:51.230Z,3760
2018-02-21T12:47:00.967Z,3752
2018-02-21T12:48:10.426Z,3824
2018-02-21T12:49:20.159Z,3756
2018-02-21T12:50:29.883Z,3848
2018-02-21T12:51:39.876Z,3860
2018-02-21T12:52:49.612Z,3860
2018-02-21T12:53:59.600Z,3932
2018-02-21T12:55:09.323Z,3912
2018-02-21T12:56:18.784Z,3900
2018-02-21T12:57:28.242Z,3916
2018-02-21T12:58:38.242Z,3928
2018-02-21T12:59:47.977Z,3932
2018-02-21T13:00:57.442Z,3964
2018-02-21T13:02:06.903Z,3944
2018-02-21T13:03:16.371Z,4000
2018-02-21T13:04:26.372Z,3980
2018-02-21T13:05:36.103Z,3996
2018-02-21T13:06:45.569Z,4112
2018-02-21T13:07:55.557Z,3948
2018-02-21T13:09:04.805Z,3892
2018-02-21T13:10:14.536Z,4176
2018-02-21T13:11:23.736Z,3208
2018-02-21T13:12:33.461Z,3296
2018-02-21T13:13:42.661Z,3588
2018-02-21T13:14:52.126Z,3660
2018-02-21T13:16:01.856Z,3468
2018-02-21T13:17:11.660Z,3148
2018-02-21T13:18:21.528Z,3320
2018-02-21T13:19:31.042Z,4064
2018-02-21T13:20:40.821Z,3480
2018-02-21T13:21:50.566Z,4308
2018-02-21T13:23:00.582Z,3492
2018-02-21T13:24:10.313Z,4240
2018-02-21T13:25:19.318Z,3896
2018-02-21T13:26:28.525Z,4288
2018-02-21T13:27:38.282Z,3636
2018-02-21T13:28:48.010Z,3800
2018-02-21T13:29:57.261Z,3772
2018-02-21T13:31:06.741Z,3372
2018-02-21T13:32:15.936Z,4224
2018-02-21T13:33:25.942Z,4088
2018-02-21T13:34:35.735Z,4164
2018-02-21T13:35:45.535Z,4212
2018-02-21T13:36:55.305Z,3500
2018-02-21T13:38:04.786Z,3640
2018-02-21T13:39:14.064Z,3952
2018-02-21T13:40:23.822Z,4168
2018-02-21T13:41:33.347Z,3972
2018-02-21T13:42:43.075Z,3964
2018-02-21T13:43:52.802Z,4160
2018-02-21T13:45:02.532Z,4112
2018-02-21T13:46:11.751Z,4024
2018-02-21T13:47:21.523Z,3512
2018-02-21T13:48:31.022Z,3492
2018-02-21T13:49:40.820Z,3884
2018-02-21T13:50:50.483Z,4108
2018-02-21T13:52:00.379Z,4204
2018-02-21T13:53:10.241Z,3884
2018-02-21T13:54:20.459Z,4120
2018-02-21T13:55:31.063Z,4056
2018-02-21T13:56:41.266Z,3932
2018-02-21T13:57:50.649Z,4044
2018-02-21T13:59:00.579Z,3992
2018-02-21T14:00:09.857Z,4000
2018-02-21T14:01:19.652Z,4060
2018-02-21T14:02:29.386Z,4120
2018-02-21T14:03:39.115Z,4104
2018-02-21T14:04:48.614Z,4052
2018-02-21T14:05:58.380Z,4028
2018-02-21T14:07:07.887Z,4068
2018-02-21T14:08:17.398Z,3972
2018-02-21T14:09:26.879Z,4036
2018-02-21T14:10:36.393Z,4084
2018-02-21T14:11:46.126Z,3980
2018-02-21T14:12:55.591Z,4020
2018-02-21T14:14:05.072Z,4108
2018-02-21T14:15:15.073Z,3988
2018-02-21T14:16:25.109Z,4016
2018-02-21T14:17:35.153Z,3980
2018-02-21T14:18:44.456Z,4008
2018-02-21T14:19:54.227Z,4040
2018-02-21T14:21:03.979Z,3960
2018-02-21T14:22:14.017Z,3944
2018-02-21T14:23:23.746Z,3952
2018-02-21T14:24:33.353Z,3968
2018-02-21T14:25:43.098Z,3972
2018-02-21T14:26:52.644Z,4040
2018-02-21T14:28:02.389Z,4012
2018-02-21T14:29:12.316Z,3972
2018-02-21T14:30:21.571Z,3948
2018-02-21T14:31:31.344Z,3956
2018-02-21T14:32:41.073Z,3948
2018-02-21T14:33:50.528Z,3896
2018-02-21T14:35:00.259Z,3984
2018-02-21T14:36:09.747Z,4016
2018-02-21T14:37:19.496Z,3964
2018-02-21T14:38:28.959Z,3964
2018-02-21T14:39:37.885Z,3876
2018-02-21T14:40:47.397Z,3812
2018-02-21T14:41:56.645Z,3796
2018-02-21T14:43:06.385Z,3760
2018-02-21T14:44:15.592Z,3744
2018-02-21T14:45:25.397Z,3692
2018-02-21T14:46:34.881Z,3660
2018-02-21T14:47:44.347Z,3716
2018-02-21T14:48:53.847Z,3744
2018-02-21T14:50:03.873Z,3696
2018-02-21T14:51:13.613Z,3684
2018-02-21T14:52:23.364Z,3664
2018-02-21T14:53:33.106Z,3704
2018-02-21T14:54:43.114Z,3672
2018-02-21T14:55:52.882Z,3620
2018-02-21T14:57:02.366Z,3548
2018-02-21T14:58:11.630Z,3488
2018-02-21T14:59:21.366Z,3444
2018-02-21T15:00:31.100Z,3460
2018-02-21T15:01:40.841Z,3508
2018-02-21T15:02:50.935Z,3452
2018-02-21T15:04:00.663Z,3416
2018-02-21T15:05:10.150Z,3340
2018-02-21T15:06:19.884Z,3332
2018-02-21T15:07:29.648Z,3364
2018-02-21T15:08:39.383Z,3364
2018-02-21T15:09:48.937Z,3300
2018-02-21T15:10:59.043Z,3240
2018-02-21T15:12:08.240Z,3184
2018-02-21T15:13:17.781Z,3204
2018-02-21T15:14:27.305Z,3136
2018-02-21T15:15:36.842Z,3060
2018-02-21T15:16:46.596Z,3052
2018-02-21T15:17:56.346Z,3012
2018-02-21T15:19:06.093Z,2936
2018-02-21T15:20:16.127Z,2916
2018-02-21T15:21:26.223Z,2868
2018-02-21T15:22:35.732Z,2820
2018-02-21T15:23:45.198Z,2820
2018-02-21T15:24:54.931Z,2840
2018-02-21T15:26:04.467Z,2768
2018-02-21T15:27:14.199Z,2652
2018-02-21T15:28:23.926Z,2688
2018-02-21T15:29:33.390Z,2624
2018-02-21T15:30:42.318Z,2576
2018-02-21T15:31:51.792Z,2664
2018-02-21T15:33:01.261Z,2624
2018-02-21T15:34:10.509Z,2568
2018-02-21T15:35:20.434Z,2536
2018-02-21T15:36:30.230Z,2480
2018-02-21T15:37:39.713Z,2444
2018-02-21T15:38:50.074Z,2360
2018-02-21T15:39:59.540Z,2320
2018-02-21T15:41:08.746Z,2312
2018-02-21T15:42:18.206Z,2264
2018-02-21T15:43:27.948Z,2196
2018-02-21T15:44:37.944Z,2172
2018-02-21T15:45:47.155Z,2100
2018-02-21T15:46:57.161Z,2076
2018-02-21T15:48:06.624Z,2060
2018-02-21T15:49:16.448Z,2096
2018-02-21T15:50:26.526Z,2080
2018-02-21T15:51:36.261Z,2040
2018-02-21T15:52:45.189Z,2008
2018-02-21T15:53:53.863Z,1968
2018-02-21T15:55:03.321Z,1896
2018-02-21T15:56:12.786Z,1844
2018-02-21T15:57:22.019Z,1796
2018-02-21T15:58:31.490Z,1752
2018-02-21T15:59:41.248Z,1684
2018-02-21T16:00:51.264Z,1628
2018-02-21T16:02:00.999Z,1580
2018-02-21T16:03:10.739Z,1524
2018-02-21T16:04:20.472Z,1472
2018-02-21T16:05:29.671Z,1416
2018-02-21T16:06:39.410Z,1356
2018-02-21T16:07:49.141Z,1272